sensor_id;sensor_type;location;lat;lon;timestamp;P1;durP1;ratioP1;P2;durP2;ratioP2
72924;SDS011;61070;50.794;7.054;2024-03-02T00:00:25;2.30;;;1.52;;
72924;SDS011;61070;50.794;7.054;2024-03-02T00:01:26;3.28;;;1.90;;
72924;SDS011;61070;50.794;7.054;2024-03-02T00:02:27;3.28;;;1.90;;
72924;SDS011;61070;50.794;7.054;2024-03-02T00:03:27;3.72;;;1.95;;
72924;SDS011;61070;50.794;7.054;2024-03-02T00:04:27;2.65;;;1.48;;
72924;SDS011;61070;50.794;7.054;2024-03-02T00:05:28;2.33;;;1.52;;
72924;SDS011;61070;50.794;7.054;2024-03-02T00:06:28;3.15;;;1.80;;
72924;SDS011;61070;50.794;7.054;2024-03-02T00:07:28;4.63;;;1.50;;
72924;SDS011;61070;50.794;7.054;2024-03-02T00:08:29;3.55;;;1.88;;
72924;SDS011;61070;50.794;7.054;2024-03-02T00:09:30;2.92;;;2.08;;
72924;SDS011;61070;50.794;7.054;2024-03-02T00:10:37;3.72;;;1.70;;
72924;SDS011;61070;50.794;7.054;2024-03-02T00:11:41;3.15;;;1.80;;
72924;SDS011;61070;50.794;7.054;2024-03-02T00:12:41;2.92;;;1.67;;
72924;SDS011;61070;50.794;7.054;2024-03-02T00:13:42;3.50;;;1.83;;
72924;SDS011;61070;50.794;7.054;2024-03-02T00:14:43;4.13;;;2.00;;
72924;SDS011;61070;50.794;7.054;2024-03-02T00:16:47;4.32;;;2.00;;
72924;SDS011;61070;50.794;7.054;2024-03-02T00:17:52;2.22;;;1.58;;
72924;SDS011;61070;50.794;7.054;2024-03-02T00:18:53;3.28;;;1.80;;
72924;SDS011;61070;50.794;7.054;2024-03-02T00:19:53;2.67;;;1.63;;
72924;SDS011;61070;50.794;7.054;2024-03-02T00:20:54;4.68;;;1.65;;
72924;SDS011;61070;50.794;7.054;2024-03-02T00:21:56;4.13;;;1.90;;
72924;SDS011;61070;50.794;7.054;2024-03-02T00:23:03;2.53;;;1.60;;
72924;SDS011;61070;50.794;7.054;2024-03-02T00:24:07;3.35;;;1.70;;
72924;SDS011;61070;50.794;7.054;2024-03-02T00:25:18;6.32;;;1.63;;
72924;SDS011;61070;50.794;7.054;2024-03-02T00:26:19;2.15;;;1.48;;
72924;SDS011;61070;50.794;7.054;2024-03-02T00:27:19;3.05;;;1.60;;
72924;SDS011;61070;50.794;7.054;2024-03-02T00:28:29;4.57;;;1.80;;
72924;SDS011;61070;50.794;7.054;2024-03-02T00:29:34;2.90;;;1.70;;
72924;SDS011;61070;50.794;7.054;2024-03-02T00:31:57;3.13;;;1.67;;
72924;SDS011;61070;50.794;7.054;2024-03-02T00:32:58;3.25;;;1.73;;
72924;SDS011;61070;50.794;7.054;2024-03-02T00:33:59;4.10;;;1.45;;
72924;SDS011;61070;50.794;7.054;2024-03-02T00:35:05;6.43;;;1.70;;
72924;SDS011;61070;50.794;7.054;2024-03-02T00:36:06;6.60;;;1.92;;
72924;SDS011;61070;50.794;7.054;2024-03-02T00:37:07;3.15;;;1.90;;
72924;SDS011;61070;50.794;7.054;2024-03-02T00:38:08;2.40;;;1.58;;
72924;SDS011;61070;50.794;7.054;2024-03-02T00:39:08;3.58;;;1.77;;
72924;SDS011;61070;50.794;7.054;2024-03-02T00:40:13;2.90;;;1.55;;
72924;SDS011;61070;50.794;7.054;2024-03-02T00:41:27;3.22;;;1.60;;
72924;SDS011;61070;50.794;7.054;2024-03-02T00:42:31;2.38;;;1.38;;
72924;SDS011;61070;50.794;7.054;2024-03-02T00:44:49;1.95;;;1.60;;
72924;SDS011;61070;50.794;7.054;2024-03-02T00:45:50;3.15;;;1.27;;
72924;SDS011;61070;50.794;7.054;2024-03-02T00:46:50;1.85;;;1.45;;
72924;SDS011;61070;50.794;7.054;2024-03-02T00:47:51;2.92;;;1.50;;
72924;SDS011;61070;50.794;7.054;2024-03-02T00:48:53;5.13;;;1.80;;
72924;SDS011;61070;50.794;7.054;2024-03-02T00:49:55;2.90;;;1.67;;
72924;SDS011;61070;50.794;7.054;2024-03-02T00:50:55;2.22;;;1.70;;
72924;SDS011;61070;50.794;7.054;2024-03-02T00:51:55;4.03;;;1.65;;
72924;SDS011;61070;50.794;7.054;2024-03-02T00:52:56;3.30;;;1.42;;
72924;SDS011;61070;50.794;7.054;2024-03-02T00:54:00;1.88;;;1.48;;
72924;SDS011;61070;50.794;7.054;2024-03-02T00:55:04;3.72;;;1.73;;
72924;SDS011;61070;50.794;7.054;2024-03-02T00:56:05;2.60;;;1.60;;
72924;SDS011;61070;50.794;7.054;2024-03-02T00:57:10;1.70;;;1.20;;
72924;SDS011;61070;50.794;7.054;2024-03-02T00:58:12;3.65;;;1.70;;
72924;SDS011;61070;50.794;7.054;2024-03-02T00:59:12;1.80;;;1.27;;
72924;SDS011;61070;50.794;7.054;2024-03-02T01:00:12;2.17;;;1.35;;
72924;SDS011;61070;50.794;7.054;2024-03-02T01:01:15;2.30;;;1.38;;
72924;SDS011;61070;50.794;7.054;2024-03-02T01:02:16;1.80;;;1.30;;
72924;SDS011;61070;50.794;7.054;2024-03-02T01:03:16;2.33;;;1.30;;
72924;SDS011;61070;50.794;7.054;2024-03-02T01:04:16;8.40;;;1.58;;
72924;SDS011;61070;50.794;7.054;2024-03-02T01:05:17;2.08;;;1.58;;
72924;SDS011;61070;50.794;7.054;2024-03-02T01:06:17;3.72;;;1.80;;
72924;SDS011;61070;50.794;7.054;2024-03-02T01:07:18;3.58;;;1.90;;
72924;SDS011;61070;50.794;7.054;2024-03-02T01:08:18;2.55;;;1.42;;
72924;SDS011;61070;50.794;7.054;2024-03-02T01:09:19;6.32;;;1.70;;
72924;SDS011;61070;50.794;7.054;2024-03-02T01:10:19;3.30;;;1.40;;
72924;SDS011;61070;50.794;7.054;2024-03-02T01:11:20;2.13;;;1.40;;
72924;SDS011;61070;50.794;7.054;2024-03-02T01:12:23;2.72;;;1.65;;
72924;SDS011;61070;50.794;7.054;2024-03-02T01:13:24;2.47;;;1.48;;
72924;SDS011;61070;50.794;7.054;2024-03-02T01:14:24;3.03;;;1.58;;
72924;SDS011;61070;50.794;7.054;2024-03-02T01:15:24;5.40;;;1.60;;
72924;SDS011;61070;50.794;7.054;2024-03-02T01:16:24;4.60;;;1.45;;
72924;SDS011;61070;50.794;7.054;2024-03-02T01:17:25;2.75;;;1.55;;
72924;SDS011;61070;50.794;7.054;2024-03-02T01:18:25;2.25;;;1.40;;
72924;SDS011;61070;50.794;7.054;2024-03-02T01:19:26;2.03;;;1.30;;
72924;SDS011;61070;50.794;7.054;2024-03-02T01:20:26;1.83;;;1.10;;
72924;SDS011;61070;50.794;7.054;2024-03-02T01:21:27;2.72;;;1.50;;
72924;SDS011;61070;50.794;7.054;2024-03-02T01:22:27;2.40;;;1.48;;
72924;SDS011;61070;50.794;7.054;2024-03-02T01:23:27;3.70;;;1.42;;
72924;SDS011;61070;50.794;7.054;2024-03-02T01:24:28;3.40;;;1.55;;
72924;SDS011;61070;50.794;7.054;2024-03-02T01:25:28;2.95;;;1.20;;
72924;SDS011;61070;50.794;7.054;2024-03-02T01:26:28;3.28;;;1.35;;
72924;SDS011;61070;50.794;7.054;2024-03-02T01:27:28;2.85;;;1.60;;
72924;SDS011;61070;50.794;7.054;2024-03-02T01:28:29;5.20;;;1.63;;
72924;SDS011;61070;50.794;7.054;2024-03-02T01:29:29;2.55;;;1.52;;
72924;SDS011;61070;50.794;7.054;2024-03-02T01:30:29;2.78;;;1.63;;
72924;SDS011;61070;50.794;7.054;2024-03-02T01:31:29;2.88;;;1.40;;
72924;SDS011;61070;50.794;7.054;2024-03-02T01:32:30;4.53;;;1.40;;
72924;SDS011;61070;50.794;7.054;2024-03-02T01:33:30;2.72;;;1.50;;
72924;SDS011;61070;50.794;7.054;2024-03-02T01:34:30;2.72;;;1.63;;
72924;SDS011;61070;50.794;7.054;2024-03-02T01:35:31;4.75;;;1.30;;
72924;SDS011;61070;50.794;7.054;2024-03-02T01:36:32;4.60;;;1.20;;
72924;SDS011;61070;50.794;7.054;2024-03-02T01:37:32;4.88;;;1.40;;
72924;SDS011;61070;50.794;7.054;2024-03-02T01:38:32;3.75;;;1.10;;
72924;SDS011;61070;50.794;7.054;2024-03-02T01:39:33;3.15;;;1.63;;
72924;SDS011;61070;50.794;7.054;2024-03-02T01:40:34;1.65;;;1.10;;
72924;SDS011;61070;50.794;7.054;2024-03-02T01:41:34;3.30;;;1.38;;
72924;SDS011;61070;50.794;7.054;2024-03-02T01:42:36;3.17;;;1.08;;
72924;SDS011;61070;50.794;7.054;2024-03-02T01:43:36;2.92;;;1.33;;
72924;SDS011;61070;50.794;7.054;2024-03-02T01:44:37;2.10;;;1.10;;
72924;SDS011;61070;50.794;7.054;2024-03-02T01:45:37;2.55;;;1.58;;
72924;SDS011;61070;50.794;7.054;2024-03-02T01:46:38;3.40;;;1.02;;
72924;SDS011;61070;50.794;7.054;2024-03-02T01:47:38;3.40;;;1.50;;
72924;SDS011;61070;50.794;7.054;2024-03-02T01:48:38;1.80;;;1.27;;
72924;SDS011;61070;50.794;7.054;2024-03-02T01:49:38;2.42;;;1.13;;
72924;SDS011;61070;50.794;7.054;2024-03-02T01:50:40;2.05;;;1.33;;
72924;SDS011;61070;50.794;7.054;2024-03-02T01:51:41;3.80;;;1.30;;
72924;SDS011;61070;50.794;7.054;2024-03-02T01:52:41;5.28;;;1.20;;
72924;SDS011;61070;50.794;7.054;2024-03-02T01:53:42;7.20;;;1.25;;
72924;SDS011;61070;50.794;7.054;2024-03-02T01:54:42;4.05;;;1.30;;
72924;SDS011;61070;50.794;7.054;2024-03-02T01:55:42;2.28;;;1.27;;
72924;SDS011;61070;50.794;7.054;2024-03-02T01:56:43;4.95;;;1.55;;
72924;SDS011;61070;50.794;7.054;2024-03-02T01:57:43;4.45;;;1.30;;
72924;SDS011;61070;50.794;7.054;2024-03-02T01:58:44;3.80;;;1.00;;
72924;SDS011;61070;50.794;7.054;2024-03-02T01:59:45;2.85;;;1.10;;
72924;SDS011;61070;50.794;7.054;2024-03-02T02:00:47;2.83;;;1.42;;
72924;SDS011;61070;50.794;7.054;2024-03-02T02:01:47;2.35;;;1.20;;
72924;SDS011;61070;50.794;7.054;2024-03-02T02:02:48;2.20;;;1.13;;
72924;SDS011;61070;50.794;7.054;2024-03-02T02:03:48;5.28;;;1.48;;
72924;SDS011;61070;50.794;7.054;2024-03-02T02:04:48;5.20;;;1.25;;
72924;SDS011;61070;50.794;7.054;2024-03-02T02:05:49;4.60;;;1.33;;
72924;SDS011;61070;50.794;7.054;2024-03-02T02:06:49;3.13;;;1.30;;
72924;SDS011;61070;50.794;7.054;2024-03-02T02:07:49;2.20;;;1.17;;
72924;SDS011;61070;50.794;7.054;2024-03-02T02:08:50;4.70;;;1.30;;
72924;SDS011;61070;50.794;7.054;2024-03-02T02:09:50;2.28;;;1.48;;
72924;SDS011;61070;50.794;7.054;2024-03-02T02:10:51;1.50;;;1.20;;
72924;SDS011;61070;50.794;7.054;2024-03-02T02:11:51;2.67;;;1.30;;
72924;SDS011;61070;50.794;7.054;2024-03-02T02:12:52;2.15;;;1.15;;
72924;SDS011;61070;50.794;7.054;2024-03-02T02:13:52;3.50;;;1.30;;
72924;SDS011;61070;50.794;7.054;2024-03-02T02:14:55;3.65;;;1.77;;
72924;SDS011;61070;50.794;7.054;2024-03-02T02:15:56;2.05;;;1.30;;
72924;SDS011;61070;50.794;7.054;2024-03-02T02:17:04;3.13;;;1.00;;
72924;SDS011;61070;50.794;7.054;2024-03-02T02:18:04;1.73;;;0.90;;
72924;SDS011;61070;50.794;7.054;2024-03-02T02:19:05;2.35;;;1.05;;
72924;SDS011;61070;50.794;7.054;2024-03-02T02:20:05;3.30;;;1.40;;
72924;SDS011;61070;50.794;7.054;2024-03-02T02:21:07;3.15;;;1.70;;
72924;SDS011;61070;50.794;7.054;2024-03-02T02:22:09;5.85;;;1.27;;
72924;SDS011;61070;50.794;7.054;2024-03-02T02:23:12;2.30;;;0.90;;
72924;SDS011;61070;50.794;7.054;2024-03-02T02:24:13;8.27;;;1.40;;
72924;SDS011;61070;50.794;7.054;2024-03-02T02:25:13;1.50;;;1.13;;
72924;SDS011;61070;50.794;7.054;2024-03-02T02:26:14;1.67;;;0.98;;
72924;SDS011;61070;50.794;7.054;2024-03-02T02:27:14;3.42;;;1.65;;
72924;SDS011;61070;50.794;7.054;2024-03-02T02:28:15;2.50;;;1.30;;
72924;SDS011;61070;50.794;7.054;2024-03-02T02:29:15;2.78;;;1.25;;
72924;SDS011;61070;50.794;7.054;2024-03-02T02:30:19;3.33;;;1.27;;
72924;SDS011;61070;50.794;7.054;2024-03-02T02:31:23;5.43;;;1.30;;
72924;SDS011;61070;50.794;7.054;2024-03-02T02:32:23;1.77;;;1.33;;
72924;SDS011;61070;50.794;7.054;2024-03-02T02:33:23;1.50;;;0.93;;
72924;SDS011;61070;50.794;7.054;2024-03-02T02:34:24;2.88;;;1.17;;
72924;SDS011;61070;50.794;7.054;2024-03-02T02:35:24;3.75;;;1.55;;
72924;SDS011;61070;50.794;7.054;2024-03-02T02:36:24;3.97;;;1.45;;
72924;SDS011;61070;50.794;7.054;2024-03-02T02:37:25;1.92;;;1.20;;
72924;SDS011;61070;50.794;7.054;2024-03-02T02:38:25;2.42;;;1.38;;
72924;SDS011;61070;50.794;7.054;2024-03-02T02:39:25;3.15;;;1.35;;
72924;SDS011;61070;50.794;7.054;2024-03-02T02:40:26;3.90;;;1.38;;
72924;SDS011;61070;50.794;7.054;2024-03-02T02:41:26;3.40;;;1.40;;
72924;SDS011;61070;50.794;7.054;2024-03-02T02:42:27;2.30;;;1.25;;
72924;SDS011;61070;50.794;7.054;2024-03-02T02:43:27;1.35;;;1.13;;
72924;SDS011;61070;50.794;7.054;2024-03-02T02:44:27;4.00;;;1.70;;
72924;SDS011;61070;50.794;7.054;2024-03-02T02:45:28;4.93;;;1.50;;
72924;SDS011;61070;50.794;7.054;2024-03-02T02:46:28;2.33;;;1.27;;
72924;SDS011;61070;50.794;7.054;2024-03-02T02:47:28;5.22;;;1.23;;
72924;SDS011;61070;50.794;7.054;2024-03-02T02:48:29;3.15;;;1.20;;
72924;SDS011;61070;50.794;7.054;2024-03-02T02:49:30;3.65;;;1.20;;
72924;SDS011;61070;50.794;7.054;2024-03-02T02:50:31;2.10;;;1.10;;
72924;SDS011;61070;50.794;7.054;2024-03-02T02:51:32;2.78;;;1.25;;
72924;SDS011;61070;50.794;7.054;2024-03-02T02:52:32;2.75;;;1.70;;
72924;SDS011;61070;50.794;7.054;2024-03-02T02:53:35;4.90;;;2.13;;
72924;SDS011;61070;50.794;7.054;2024-03-02T02:54:37;2.97;;;1.27;;
72924;SDS011;61070;50.794;7.054;2024-03-02T02:55:39;3.70;;;1.50;;
72924;SDS011;61070;50.794;7.054;2024-03-02T02:56:40;2.75;;;1.30;;
72924;SDS011;61070;50.794;7.054;2024-03-02T02:57:40;2.25;;;1.25;;
72924;SDS011;61070;50.794;7.054;2024-03-02T02:58:42;1.48;;;1.05;;
72924;SDS011;61070;50.794;7.054;2024-03-02T02:59:42;2.72;;;1.40;;
72924;SDS011;61070;50.794;7.054;2024-03-02T03:00:42;3.08;;;1.45;;
72924;SDS011;61070;50.794;7.054;2024-03-02T03:01:42;2.08;;;1.50;;
72924;SDS011;61070;50.794;7.054;2024-03-02T03:02:43;3.38;;;1.35;;
72924;SDS011;61070;50.794;7.054;2024-03-02T03:03:47;4.63;;;1.23;;
72924;SDS011;61070;50.794;7.054;2024-03-02T03:04:47;2.70;;;1.33;;
72924;SDS011;61070;50.794;7.054;2024-03-02T03:05:48;2.97;;;1.30;;
72924;SDS011;61070;50.794;7.054;2024-03-02T03:06:49;4.65;;;1.50;;
72924;SDS011;61070;50.794;7.054;2024-03-02T03:07:49;4.47;;;1.52;;
72924;SDS011;61070;50.794;7.054;2024-03-02T03:08:50;3.97;;;1.40;;
72924;SDS011;61070;50.794;7.054;2024-03-02T03:09:50;2.80;;;1.55;;
72924;SDS011;61070;50.794;7.054;2024-03-02T03:10:50;2.63;;;1.45;;
72924;SDS011;61070;50.794;7.054;2024-03-02T03:11:50;3.03;;;1.45;;
72924;SDS011;61070;50.794;7.054;2024-03-02T03:12:51;3.38;;;1.45;;
72924;SDS011;61070;50.794;7.054;2024-03-02T03:13:52;2.00;;;1.05;;
72924;SDS011;61070;50.794;7.054;2024-03-02T03:14:54;3.72;;;1.60;;
72924;SDS011;61070;50.794;7.054;2024-03-02T03:15:55;4.50;;;1.50;;
72924;SDS011;61070;50.794;7.054;2024-03-02T03:16:55;5.60;;;1.38;;
72924;SDS011;61070;50.794;7.054;2024-03-02T03:17:56;5.05;;;1.52;;
72924;SDS011;61070;50.794;7.054;2024-03-02T03:18:56;3.03;;;1.10;;
72924;SDS011;61070;50.794;7.054;2024-03-02T03:19:56;4.82;;;1.35;;
72924;SDS011;61070;50.794;7.054;2024-03-02T03:20:56;4.18;;;1.50;;
72924;SDS011;61070;50.794;7.054;2024-03-02T03:21:57;1.85;;;1.23;;
72924;SDS011;61070;50.794;7.054;2024-03-02T03:22:57;6.85;;;1.88;;
72924;SDS011;61070;50.794;7.054;2024-03-02T03:23:57;3.45;;;1.50;;
72924;SDS011;61070;50.794;7.054;2024-03-02T03:24:58;1.92;;;1.10;;
72924;SDS011;61070;50.794;7.054;2024-03-02T03:25:58;3.22;;;1.73;;
72924;SDS011;61070;50.794;7.054;2024-03-02T03:26:58;4.85;;;1.63;;
72924;SDS011;61070;50.794;7.054;2024-03-02T03:27:58;2.20;;;1.30;;
72924;SDS011;61070;50.794;7.054;2024-03-02T03:28:59;3.75;;;1.45;;
72924;SDS011;61070;50.794;7.054;2024-03-02T03:29:59;3.65;;;1.90;;
72924;SDS011;61070;50.794;7.054;2024-03-02T03:30:59;2.13;;;1.20;;
72924;SDS011;61070;50.794;7.054;2024-03-02T03:31:59;1.90;;;1.25;;
72924;SDS011;61070;50.794;7.054;2024-03-02T03:33:00;3.58;;;1.55;;
72924;SDS011;61070;50.794;7.054;2024-03-02T03:34:00;2.83;;;1.17;;
72924;SDS011;61070;50.794;7.054;2024-03-02T03:35:00;3.42;;;1.40;;
72924;SDS011;61070;50.794;7.054;2024-03-02T03:36:01;3.08;;;1.42;;
72924;SDS011;61070;50.794;7.054;2024-03-02T03:37:03;2.63;;;1.30;;
72924;SDS011;61070;50.794;7.054;2024-03-02T03:38:03;4.80;;;1.40;;
72924;SDS011;61070;50.794;7.054;2024-03-02T03:39:04;3.08;;;1.58;;
72924;SDS011;61070;50.794;7.054;2024-03-02T03:40:06;5.47;;;1.40;;
72924;SDS011;61070;50.794;7.054;2024-03-02T03:41:15;4.38;;;1.45;;
72924;SDS011;61070;50.794;7.054;2024-03-02T03:42:16;2.88;;;1.30;;
72924;SDS011;61070;50.794;7.054;2024-03-02T03:43:16;2.05;;;1.30;;
72924;SDS011;61070;50.794;7.054;2024-03-02T03:44:16;3.72;;;1.70;;
72924;SDS011;61070;50.794;7.054;2024-03-02T03:45:16;3.53;;;1.58;;
72924;SDS011;61070;50.794;7.054;2024-03-02T03:46:17;3.45;;;1.63;;
72924;SDS011;61070;50.794;7.054;2024-03-02T03:47:17;4.25;;;1.58;;
72924;SDS011;61070;50.794;7.054;2024-03-02T03:48:17;1.30;;;0.90;;
72924;SDS011;61070;50.794;7.054;2024-03-02T03:49:18;4.57;;;1.40;;
72924;SDS011;61070;50.794;7.054;2024-03-02T03:50:18;2.08;;;1.23;;
72924;SDS011;61070;50.794;7.054;2024-03-02T03:51:19;2.80;;;1.30;;
72924;SDS011;61070;50.794;7.054;2024-03-02T03:52:20;1.88;;;1.40;;
72924;SDS011;61070;50.794;7.054;2024-03-02T03:53:21;1.90;;;1.35;;
72924;SDS011;61070;50.794;7.054;2024-03-02T03:54:22;2.22;;;1.13;;
72924;SDS011;61070;50.794;7.054;2024-03-02T03:55:22;1.98;;;1.38;;
72924;SDS011;61070;50.794;7.054;2024-03-02T03:56:22;4.70;;;1.70;;
72924;SDS011;61070;50.794;7.054;2024-03-02T03:57:23;9.63;;;1.70;;
72924;SDS011;61070;50.794;7.054;2024-03-02T03:58:23;4.68;;;2.05;;
72924;SDS011;61070;50.794;7.054;2024-03-02T03:59:23;2.92;;;1.40;;
72924;SDS011;61070;50.794;7.054;2024-03-02T04:00:23;3.90;;;1.33;;
72924;SDS011;61070;50.794;7.054;2024-03-02T04:01:24;3.03;;;1.45;;
72924;SDS011;61070;50.794;7.054;2024-03-02T04:02:24;3.22;;;1.33;;
72924;SDS011;61070;50.794;7.054;2024-03-02T04:03:24;1.73;;;1.20;;
72924;SDS011;61070;50.794;7.054;2024-03-02T04:04:25;4.25;;;1.42;;
72924;SDS011;61070;50.794;7.054;2024-03-02T04:05:25;3.10;;;1.38;;
72924;SDS011;61070;50.794;7.054;2024-03-02T04:06:25;3.53;;;1.30;;
72924;SDS011;61070;50.794;7.054;2024-03-02T04:07:26;3.35;;;1.33;;
72924;SDS011;61070;50.794;7.054;2024-03-02T04:08:26;1.67;;;1.15;;
72924;SDS011;61070;50.794;7.054;2024-03-02T04:09:26;3.45;;;1.73;;
72924;SDS011;61070;50.794;7.054;2024-03-02T04:10:27;2.17;;;1.20;;
72924;SDS011;61070;50.794;7.054;2024-03-02T04:11:27;3.55;;;1.52;;
72924;SDS011;61070;50.794;7.054;2024-03-02T04:12:27;2.97;;;1.45;;
72924;SDS011;61070;50.794;7.054;2024-03-02T04:13:28;4.03;;;1.60;;
72924;SDS011;61070;50.794;7.054;2024-03-02T04:14:28;2.33;;;1.55;;
72924;SDS011;61070;50.794;7.054;2024-03-02T04:15:28;3.50;;;1.60;;
72924;SDS011;61070;50.794;7.054;2024-03-02T04:16:29;6.13;;;1.90;;
72924;SDS011;61070;50.794;7.054;2024-03-02T04:17:30;3.65;;;1.40;;
72924;SDS011;61070;50.794;7.054;2024-03-02T04:18:32;4.35;;;1.70;;
72924;SDS011;61070;50.794;7.054;2024-03-02T04:19:32;3.67;;;1.45;;
72924;SDS011;61070;50.794;7.054;2024-03-02T04:20:32;3.28;;;1.42;;
72924;SDS011;61070;50.794;7.054;2024-03-02T04:21:33;2.95;;;1.60;;
72924;SDS011;61070;50.794;7.054;2024-03-02T04:22:33;3.55;;;1.63;;
72924;SDS011;61070;50.794;7.054;2024-03-02T04:23:35;4.82;;;1.88;;
72924;SDS011;61070;50.794;7.054;2024-03-02T04:24:35;3.65;;;1.30;;
72924;SDS011;61070;50.794;7.054;2024-03-02T04:25:35;3.50;;;1.48;;
72924;SDS011;61070;50.794;7.054;2024-03-02T04:26:36;4.32;;;1.80;;
72924;SDS011;61070;50.794;7.054;2024-03-02T04:27:36;3.75;;;1.40;;
72924;SDS011;61070;50.794;7.054;2024-03-02T04:28:36;5.10;;;1.65;;
72924;SDS011;61070;50.794;7.054;2024-03-02T04:29:37;3.15;;;1.67;;
72924;SDS011;61070;50.794;7.054;2024-03-02T04:30:37;3.65;;;1.77;;
72924;SDS011;61070;50.794;7.054;2024-03-02T04:31:37;2.20;;;1.58;;
72924;SDS011;61070;50.794;7.054;2024-03-02T04:32:37;3.70;;;1.58;;
72924;SDS011;61070;50.794;7.054;2024-03-02T04:33:38;4.07;;;1.75;;
72924;SDS011;61070;50.794;7.054;2024-03-02T04:34:38;3.55;;;1.75;;
72924;SDS011;61070;50.794;7.054;2024-03-02T04:35:39;3.80;;;1.50;;
72924;SDS011;61070;50.794;7.054;2024-03-02T04:36:39;2.60;;;1.55;;
72924;SDS011;61070;50.794;7.054;2024-03-02T04:37:39;4.95;;;1.55;;
72924;SDS011;61070;50.794;7.054;2024-03-02T04:38:40;2.25;;;1.33;;
72924;SDS011;61070;50.794;7.054;2024-03-02T04:39:40;3.72;;;1.50;;
72924;SDS011;61070;50.794;7.054;2024-03-02T04:40:40;5.00;;;1.63;;
72924;SDS011;61070;50.794;7.054;2024-03-02T04:41:41;4.53;;;1.73;;
72924;SDS011;61070;50.794;7.054;2024-03-02T04:42:41;2.83;;;1.40;;
72924;SDS011;61070;50.794;7.054;2024-03-02T04:43:41;3.42;;;2.00;;
72924;SDS011;61070;50.794;7.054;2024-03-02T04:44:41;4.05;;;1.52;;
72924;SDS011;61070;50.794;7.054;2024-03-02T04:45:42;3.10;;;1.58;;
72924;SDS011;61070;50.794;7.054;2024-03-02T04:46:42;2.15;;;1.17;;
72924;SDS011;61070;50.794;7.054;2024-03-02T04:47:43;2.55;;;1.40;;
72924;SDS011;61070;50.794;7.054;2024-03-02T04:48:43;5.35;;;1.70;;
72924;SDS011;61070;50.794;7.054;2024-03-02T04:49:43;2.58;;;1.40;;
72924;SDS011;61070;50.794;7.054;2024-03-02T04:50:44;4.18;;;1.67;;
72924;SDS011;61070;50.794;7.054;2024-03-02T04:51:44;2.80;;;1.40;;
72924;SDS011;61070;50.794;7.054;2024-03-02T04:52:44;2.92;;;1.48;;
72924;SDS011;61070;50.794;7.054;2024-03-02T04:53:44;2.30;;;1.30;;
72924;SDS011;61070;50.794;7.054;2024-03-02T04:54:45;2.70;;;1.60;;
72924;SDS011;61070;50.794;7.054;2024-03-02T04:56:03;3.25;;;1.58;;
72924;SDS011;61070;50.794;7.054;2024-03-02T04:57:30;2.95;;;1.70;;
72924;SDS011;61070;50.794;7.054;2024-03-02T04:58:30;4.57;;;1.83;;
72924;SDS011;61070;50.794;7.054;2024-03-02T04:59:30;4.43;;;1.50;;
72924;SDS011;61070;50.794;7.054;2024-03-02T05:00:31;3.25;;;1.77;;
72924;SDS011;61070;50.794;7.054;2024-03-02T05:01:31;3.47;;;1.90;;
72924;SDS011;61070;50.794;7.054;2024-03-02T05:02:31;4.25;;;1.92;;
72924;SDS011;61070;50.794;7.054;2024-03-02T05:03:32;3.55;;;1.60;;
72924;SDS011;61070;50.794;7.054;2024-03-02T05:04:34;3.08;;;1.30;;
72924;SDS011;61070;50.794;7.054;2024-03-02T05:05:34;4.10;;;1.75;;
72924;SDS011;61070;50.794;7.054;2024-03-02T05:06:35;2.70;;;1.60;;
72924;SDS011;61070;50.794;7.054;2024-03-02T05:07:35;4.05;;;1.70;;
72924;SDS011;61070;50.794;7.054;2024-03-02T05:08:35;5.35;;;2.05;;
72924;SDS011;61070;50.794;7.054;2024-03-02T05:09:36;3.10;;;1.73;;
72924;SDS011;61070;50.794;7.054;2024-03-02T05:10:36;3.08;;;1.60;;
72924;SDS011;61070;50.794;7.054;2024-03-02T05:11:36;4.10;;;1.98;;
72924;SDS011;61070;50.794;7.054;2024-03-02T05:12:37;2.28;;;1.60;;
72924;SDS011;61070;50.794;7.054;2024-03-02T05:13:43;3.38;;;1.70;;
72924;SDS011;61070;50.794;7.054;2024-03-02T05:14:43;5.00;;;2.03;;
72924;SDS011;61070;50.794;7.054;2024-03-02T05:15:43;5.40;;;2.05;;
72924;SDS011;61070;50.794;7.054;2024-03-02T05:16:44;3.50;;;1.60;;
72924;SDS011;61070;50.794;7.054;2024-03-02T05:17:44;3.38;;;1.50;;
72924;SDS011;61070;50.794;7.054;2024-03-02T05:18:44;4.00;;;1.63;;
72924;SDS011;61070;50.794;7.054;2024-03-02T05:19:44;3.88;;;2.03;;
72924;SDS011;61070;50.794;7.054;2024-03-02T05:20:45;5.22;;;2.00;;
72924;SDS011;61070;50.794;7.054;2024-03-02T05:21:45;3.88;;;1.90;;
72924;SDS011;61070;50.794;7.054;2024-03-02T05:22:45;5.15;;;1.83;;
72924;SDS011;61070;50.794;7.054;2024-03-02T05:23:47;2.15;;;1.67;;
72924;SDS011;61070;50.794;7.054;2024-03-02T05:24:47;3.65;;;1.73;;
72924;SDS011;61070;50.794;7.054;2024-03-02T05:25:47;3.25;;;1.95;;
72924;SDS011;61070;50.794;7.054;2024-03-02T05:26:47;3.95;;;2.05;;
72924;SDS011;61070;50.794;7.054;2024-03-02T05:27:48;5.43;;;2.05;;
72924;SDS011;61070;50.794;7.054;2024-03-02T05:28:48;7.28;;;2.10;;
72924;SDS011;61070;50.794;7.054;2024-03-02T05:29:48;2.40;;;1.67;;
72924;SDS011;61070;50.794;7.054;2024-03-02T05:30:48;3.45;;;1.70;;
72924;SDS011;61070;50.794;7.054;2024-03-02T05:31:49;5.55;;;2.30;;
72924;SDS011;61070;50.794;7.054;2024-03-02T05:32:49;3.28;;;1.55;;
72924;SDS011;61070;50.794;7.054;2024-03-02T05:33:50;3.78;;;2.05;;
72924;SDS011;61070;50.794;7.054;2024-03-02T05:34:50;5.03;;;2.05;;
72924;SDS011;61070;50.794;7.054;2024-03-02T05:35:51;4.25;;;1.83;;
72924;SDS011;61070;50.794;7.054;2024-03-02T05:36:51;4.15;;;2.15;;
72924;SDS011;61070;50.794;7.054;2024-03-02T05:37:51;9.93;;;2.47;;
72924;SDS011;61070;50.794;7.054;2024-03-02T05:38:52;4.18;;;2.10;;
72924;SDS011;61070;50.794;7.054;2024-03-02T05:39:52;5.90;;;2.40;;
72924;SDS011;61070;50.794;7.054;2024-03-02T05:40:53;4.20;;;2.17;;
72924;SDS011;61070;50.794;7.054;2024-03-02T05:41:53;4.75;;;2.40;;
72924;SDS011;61070;50.794;7.054;2024-03-02T05:42:54;4.13;;;2.20;;
72924;SDS011;61070;50.794;7.054;2024-03-02T05:43:54;4.05;;;2.35;;
72924;SDS011;61070;50.794;7.054;2024-03-02T05:44:54;4.55;;;2.33;;
72924;SDS011;61070;50.794;7.054;2024-03-02T05:45:54;4.53;;;2.17;;
72924;SDS011;61070;50.794;7.054;2024-03-02T05:46:55;5.35;;;2.28;;
72924;SDS011;61070;50.794;7.054;2024-03-02T05:47:55;4.65;;;2.20;;
72924;SDS011;61070;50.794;7.054;2024-03-02T05:48:55;6.70;;;2.90;;
72924;SDS011;61070;50.794;7.054;2024-03-02T05:49:56;4.00;;;2.25;;
72924;SDS011;61070;50.794;7.054;2024-03-02T05:50:56;7.35;;;2.10;;
72924;SDS011;61070;50.794;7.054;2024-03-02T05:51:56;3.15;;;2.10;;
72924;SDS011;61070;50.794;7.054;2024-03-02T05:52:57;5.38;;;2.72;;
72924;SDS011;61070;50.794;7.054;2024-03-02T05:53:57;4.20;;;2.40;;
72924;SDS011;61070;50.794;7.054;2024-03-02T05:54:57;4.80;;;1.90;;
72924;SDS011;61070;50.794;7.054;2024-03-02T05:55:57;4.85;;;2.08;;
72924;SDS011;61070;50.794;7.054;2024-03-02T05:56:58;8.45;;;2.53;;
72924;SDS011;61070;50.794;7.054;2024-03-02T05:58:16;7.60;;;2.70;;
72924;SDS011;61070;50.794;7.054;2024-03-02T05:59:35;5.25;;;2.47;;
72924;SDS011;61070;50.794;7.054;2024-03-02T06:00:35;6.03;;;2.50;;
72924;SDS011;61070;50.794;7.054;2024-03-02T06:01:36;5.65;;;2.30;;
72924;SDS011;61070;50.794;7.054;2024-03-02T06:02:40;4.38;;;2.60;;
72924;SDS011;61070;50.794;7.054;2024-03-02T06:03:40;4.30;;;2.60;;
72924;SDS011;61070;50.794;7.054;2024-03-02T06:04:41;6.00;;;2.75;;
72924;SDS011;61070;50.794;7.054;2024-03-02T06:05:41;6.13;;;2.42;;
72924;SDS011;61070;50.794;7.054;2024-03-02T06:06:41;4.43;;;2.40;;
72924;SDS011;61070;50.794;7.054;2024-03-02T06:07:42;4.38;;;2.70;;
72924;SDS011;61070;50.794;7.054;2024-03-02T06:08:43;4.90;;;2.42;;
72924;SDS011;61070;50.794;7.054;2024-03-02T06:09:43;9.73;;;3.00;;
72924;SDS011;61070;50.794;7.054;2024-03-02T06:10:44;4.60;;;2.60;;
72924;SDS011;61070;50.794;7.054;2024-03-02T06:11:45;4.03;;;2.67;;